Time;durP1;ratioP1;P1;durP2;ratioP2;P2;SDS_P1;SDS_P2;PMS_P1;PMS_P2;Temp;Humidity;BMP_temperature;BMP_pressure;BME280_temperature;BME280_humidity;BME280_pressure;Samples;Min_cycle;Max_cycle;Signal;HPM_P1;HPM_P2
2024/04/13 00:02:14;;;;;;;22.27;9.90;;;9.90;99.90;;;;;;5454662;26;20232;-56
2024/04/13 00:04:43;;;;;;;21.53;9.70;;;9.80;99.90;;;;;;5425066;26;20236;-54
2024/04/13 00:07:11;;;;;;;18.07;9.20;;;9.80;99.90;;;;;;5457938;26;20239;-52
2024/04/13 00:09:37;;;;;;;18.70;9.17;;;9.80;99.90;;;;;;5411777;26;20409;-53
2024/04/13 00:12:06;;;;;;;19.57;9.37;;;9.80;99.90;;;;;;5466299;26;20581;-55
2024/04/13 00:14:33;;;;;;;15.47;9.77;;;9.70;99.90;;;;;;5463389;26;20269;-53
2024/04/13 00:17:02;;;;;;;14.23;8.73;;;9.70;99.90;;;;;;5450037;26;20277;-55
2024/04/13 00:19:28;;;;;;;19.07;8.90;;;9.70;99.90;;;;;;5450619;26;20681;-57
2024/04/13 00:22:00;;;;;;;17.03;8.83;;;9.70;99.90;;;;;;5447867;26;20337;-56
2024/04/13 00:24:26;;;;;;;16.97;9.13;;;9.70;99.90;;;;;;5461599;26;20616;-57
2024/04/13 00:26:55;;;;;;;13.07;8.20;;;9.70;99.90;;;;;;5406917;26;20242;-50
2024/04/13 00:29:22;;;;;;;17.53;8.70;;;9.70;99.90;;;;;;5463015;26;20265;-57
2024/04/13 00:31:50;;;;;;;15.77;8.27;;;9.70;99.90;;;;;;5452403;26;20416;-53
2024/04/13 00:34:16;;;;;;;25.70;9.93;;;9.70;99.90;;;;;;5456117;26;20232;-55
2024/04/13 00:36:46;;;;;;;13.43;7.77;;;9.70;99.90;;;;;;5434792;26;20331;-49
2024/04/13 00:39:15;;;;;;;14.33;7.60;;;9.70;99.90;;;;;;5468635;26;20297;-56
2024/04/13 00:41:44;;;;;;;20.53;8.80;;;9.60;99.90;;;;;;5410273;26;21189;-53
2024/04/13 00:44:10;;;;;;;17.87;8.20;;;9.60;99.90;;;;;;5465059;26;20640;-57
2024/04/13 00:46:42;;;;;;;19.73;7.90;;;9.60;99.90;;;;;;5446821;26;20269;-53
2024/04/13 00:49:13;;;;;;;16.20;8.60;;;9.50;99.90;;;;;;5467657;26;20235;-52
2024/04/13 00:51:44;;;;;;;15.73;7.83;;;9.40;99.90;;;;;;5421018;26;20274;-49
2024/04/13 00:54:14;;;;;;;13.43;8.13;;;9.40;99.90;;;;;;5466355;26;20265;-56
2024/04/13 00:56:46;;;;;;;19.40;8.07;;;9.30;99.90;;;;;;5448065;26;20226;-49
2024/04/13 00:59:12;;;;;;;15.67;8.10;;;9.30;99.90;;;;;;5403473;26;20251;-54
2024/04/13 01:01:42;;;;;;;14.73;7.83;;;9.30;99.90;;;;;;5448958;26;20277;-53
2024/04/13 01:04:09;;;;;;;18.07;8.00;;;9.30;99.90;;;;;;5468731;26;20281;-49
2024/04/13 01:06:38;;;;;;;15.60;8.40;;;9.30;99.90;;;;;;5464196;26;20235;-50
2024/04/13 01:09:04;;;;;;;17.93;9.00;;;9.20;99.90;;;;;;5440306;26;20269;-51
2024/04/13 01:11:34;;;;;;;13.53;7.47;;;9.20;99.90;;;;;;5457660;26;20227;-50
2024/04/13 01:14:03;;;;;;;16.57;7.97;;;9.20;99.90;;;;;;5402588;26;20357;-53
2024/04/13 01:16:35;;;;;;;19.43;8.33;;;9.20;99.90;;;;;;5450855;26;20280;-50
2024/04/13 01:19:01;;;;;;;13.43;7.57;;;9.10;99.90;;;;;;5453841;26;20634;-52
2024/04/13 01:21:29;;;;;;;14.00;7.23;;;9.20;99.90;;;;;;5456506;26;20238;-55
2024/04/13 01:24:01;;;;;;;16.27;7.80;;;9.20;99.90;;;;;;5410082;26;20282;-52
2024/04/13 01:26:30;;;;;;;17.37;7.27;;;9.10;99.90;;;;;;5448928;26;20298;-57
2024/04/13 01:28:56;;;;;;;15.70;7.17;;;9.10;99.90;;;;;;5437963;26;20253;-51
2024/04/13 01:31:26;;;;;;;13.70;8.20;;;9.10;99.90;;;;;;5413949;26;20247;-56
2024/04/13 01:33:52;;;;;;;19.23;7.93;;;9.00;99.90;;;;;;5466426;26;20238;-51
2024/04/13 01:36:22;;;;;;;15.30;7.27;;;9.00;99.90;;;;;;5467188;26;21744;-57
2024/04/13 01:38:48;;;;;;;14.80;7.40;;;9.10;99.90;;;;;;5446431;26;20245;-52
2024/04/13 01:41:19;;;;;;;8.13;6.40;;;9.10;99.90;;;;;;5448294;26;21169;-56
2024/04/13 01:43:45;;;;;;;14.20;8.27;;;9.10;99.90;;;;;;5445284;26;20891;-52
2024/04/13 01:46:14;;;;;;;11.23;6.80;;;9.00;99.90;;;;;;5404818;26;20241;-54
2024/04/13 01:48:40;;;;;;;13.67;6.70;;;9.00;99.90;;;;;;5457029;26;20250;-50
2024/04/13 01:51:09;;;;;;;10.03;6.90;;;8.90;99.90;;;;;;5463791;26;20235;-49
2024/04/13 01:53:35;;;;;;;9.73;7.27;;;8.90;99.90;;;;;;5446652;26;20269;-54
2024/04/13 01:56:03;;;;;;;14.23;7.47;;;9.00;99.90;;;;;;5430950;26;20689;-52
2024/04/13 01:58:32;;;;;;;12.70;6.50;;;9.00;99.90;;;;;;5464027;26;20273;-51
2024/04/13 02:01:06;;;;;;;13.40;6.87;;;9.00;99.90;;;;;;5470963;26;20729;-53
2024/04/13 02:03:32;;;;;;;8.87;7.17;;;9.00;99.90;;;;;;5410923;26;20242;-51
2024/04/13 02:06:04;;;;;;;10.87;6.93;;;9.00;99.90;;;;;;5458064;26;20270;-52
2024/04/13 02:08:32;;;;;;;9.47;6.20;;;8.90;99.90;;;;;;5437761;26;20227;-53
2024/04/13 02:11:01;;;;;;;11.97;6.53;;;8.90;99.90;;;;;;5417725;26;20251;-53
2024/04/13 02:13:27;;;;;;;12.40;6.63;;;9.00;99.90;;;;;;5449219;26;20257;-55
2024/04/13 02:15:59;;;;;;;9.40;6.60;;;9.00;99.90;;;;;;5453743;26;20710;-52
2024/04/13 02:18:24;;;;;;;9.50;6.60;;;9.00;99.90;;;;;;5400535;26;20405;-56
2024/04/13 02:20:53;;;;;;;9.57;6.07;;;9.10;99.90;;;;;;5452850;26;20274;-55
2024/04/13 02:23:19;;;;;;;8.87;5.80;;;9.10;99.90;;;;;;5446626;26;20227;-56
2024/04/13 02:25:49;;;;;;;11.03;6.00;;;9.00;99.90;;;;;;5437684;26;20395;-52
2024/04/13 02:28:15;;;;;;;12.90;5.93;;;9.00;99.90;;;;;;5462981;26;20227;-57
2024/04/13 02:30:45;;;;;;;11.97;6.17;;;9.00;99.90;;;;;;5463370;26;20239;-49
2024/04/13 02:33:14;;;;;;;13.53;6.40;;;9.00;99.90;;;;;;5402978;26;20296;-52
2024/04/13 02:35:42;;;;;;;10.40;6.13;;;9.00;99.90;;;;;;5454565;26;20227;-52
2024/04/13 02:38:08;;;;;;;15.80;6.47;;;9.10;99.90;;;;;;5458963;26;21143;-48
2024/04/13 02:40:37;;;;;;;8.87;5.70;;;9.10;99.90;;;;;;5433242;26;24062;-53
2024/04/13 02:43:03;;;;;;;10.73;5.87;;;9.10;99.90;;;;;;5449578;26;20235;-52
2024/04/13 02:45:32;;;;;;;11.57;6.27;;;9.10;99.90;;;;;;5460292;26;20227;-53
2024/04/13 02:47:58;;;;;;;11.03;6.13;;;9.20;99.90;;;;;;5457948;26;20247;-52
2024/04/13 02:50:29;;;;;;;10.40;5.40;;;9.20;99.90;;;;;;5379527;26;20600;-55
2024/04/13 02:52:57;;;;;;;10.23;5.57;;;9.20;99.90;;;;;;5460477;26;20242;-53
2024/04/13 02:55:26;;;;;;;10.43;6.30;;;9.20;99.90;;;;;;5446126;26;20281;-58
2024/04/13 02:57:51;;;;;;;10.90;5.83;;;9.30;99.90;;;;;;5467498;26;20342;-53
2024/04/13 03:00:20;;;;;;;10.57;5.90;;;9.40;99.90;;;;;;5457651;26;20725;-56
2024/04/13 03:02:46;;;;;;;7.83;5.87;;;9.40;99.90;;;;;;5430464;26;20367;-55
2024/04/13 03:05:14;;;;;;;13.40;6.07;;;9.40;99.90;;;;;;5385021;26;20752;-57
2024/04/13 03:07:44;;;;;;;10.83;5.53;;;9.40;99.90;;;;;;5445801;26;20223;-51
2024/04/13 03:10:13;;;;;;;12.40;6.30;;;9.50;99.90;;;;;;5450859;26;20330;-52
2024/04/13 03:12:38;;;;;;;8.80;5.83;;;9.50;99.90;;;;;;5426226;26;20324;-53
2024/04/13 03:15:08;;;;;;;8.80;5.70;;;9.60;99.90;;;;;;5457443;26;20243;-52
2024/04/13 03:17:34;;;;;;;9.50;5.50;;;9.50;99.90;;;;;;5444494;26;20230;-54
2024/04/13 03:20:05;;;;;;;11.57;5.93;;;9.50;99.90;;;;;;5388365;26;20291;-51
2024/04/13 03:22:32;;;;;;;13.67;6.07;;;9.50;99.90;;;;;;5438254;26;20723;-51
2024/04/13 03:25:03;;;;;;;10.63;5.70;;;9.60;99.90;;;;;;5459757;26;20300;-53
2024/04/13 03:27:29;;;;;;;8.13;5.30;;;9.60;99.90;;;;;;5441618;26;20231;-54
2024/04/13 03:29:57;;;;;;;9.17;5.60;;;9.60;99.90;;;;;;5437870;26;20920;-57
2024/04/13 03:32:23;;;;;;;7.10;5.20;;;9.60;99.90;;;;;;5444488;26;20886;-57
2024/04/13 03:34:52;;;;;;;8.30;5.20;;;9.60;99.90;;;;;;5397380;26;20251;-51
2024/04/13 03:37:18;;;;;;;11.10;5.67;;;9.70;99.90;;;;;;5444652;26;20227;-54
2024/04/13 03:39:46;;;;;;;8.13;4.87;;;9.70;99.90;;;;;;5460987;26;20294;-52
2024/04/13 03:42:20;;;;;;;11.10;5.93;;;9.70;99.90;;;;;;5465706;26;20226;-54
2024/04/13 03:44:46;;;;;;;7.63;5.70;;;9.60;99.90;;;;;;5428198;26;20433;-52
2024/04/13 03:47:14;;;;;;;10.33;5.00;;;9.50;99.90;;;;;;5425428;26;20868;-55
2024/04/13 03:49:41;;;;;;;10.50;5.40;;;9.60;99.90;;;;;;5446332;26;20231;-50
2024/04/13 03:52:10;;;;;;;10.07;5.57;;;9.50;99.90;;;;;;5386164;26;20317;-57
2024/04/13 03:54:36;;;;;;;6.17;4.50;;;9.50;99.90;;;;;;5457383;26;20291;-52
2024/04/13 03:57:05;;;;;;;6.50;5.00;;;9.60;99.90;;;;;;5470326;26;20294;-51
2024/04/13 03:59:33;;;;;;;10.33;5.20;;;9.50;99.90;;;;;;5423815;26;20248;-54
2024/04/13 04:02:02;;;;;;;8.70;5.10;;;9.60;99.90;;;;;;5456418;26;20309;-49
2024/04/13 04:04:30;;;;;;;6.53;4.77;;;9.50;99.90;;;;;;5445745;26;20265;-51
2024/04/13 04:06:58;;;;;;;6.30;5.37;;;9.50;99.90;;;;;;5395376;26;20240;-52
2024/04/13 04:09:24;;;;;;;10.20;5.27;;;9.50;99.90;;;;;;5408456;26;20240;-52
2024/04/13 04:11:52;;;;;;;9.27;4.93;;;9.50;99.90;;;;;;5438521;26;20238;-56
2024/04/13 04:14:18;;;;;;;7.27;5.17;;;9.50;99.90;;;;;;5436247;26;20411;-55
2024/04/13 04:16:49;;;;;;;6.57;5.23;;;9.50;99.90;;;;;;5438772;26;20886;-50
2024/04/13 04:19:15;;;;;;;8.07;5.13;;;9.50;99.90;;;;;;5445207;26;21041;-54
2024/04/13 04:21:44;;;;;;;5.37;4.87;;;9.60;99.90;;;;;;5461600;26;20235;-54
2024/04/13 04:24:10;;;;;;;7.40;4.77;;;9.70;99.90;;;;;;5359133;26;20238;-50
2024/04/13 04:26:39;;;;;;;9.03;4.97;;;9.70;99.90;;;;;;5455856;26;20888;-52
2024/04/13 04:29:05;;;;;;;6.50;4.90;;;9.80;99.90;;;;;;5439589;26;20825;-55
2024/04/13 04:31:33;;;;;;;5.67;4.53;;;9.80;99.90;;;;;;5428729;26;20247;-49
2024/04/13 04:34:02;;;;;;;7.23;5.10;;;9.80;99.90;;;;;;5449917;26;20273;-55
2024/04/13 04:36:30;;;;;;;8.60;5.33;;;9.80;99.90;;;;;;5451690;26;20291;-54
2024/04/13 04:38:56;;;;;;;7.50;4.90;;;9.90;99.90;;;;;;5391093;26;20623;-57
2024/04/13 04:41:26;;;;;;;9.53;5.17;;;9.90;99.90;;;;;;5424499;26;20247;-56
2024/04/13 04:43:52;;;;;;;7.93;5.10;;;9.90;99.90;;;;;;5459160;26;20281;-56
2024/04/13 04:46:21;;;;;;;5.93;4.73;;;9.90;99.90;;;;;;5414002;26;20237;-52
2024/04/13 04:48:47;;;;;;;4.87;4.37;;;10.00;99.90;;;;;;5454211;26;20308;-49
2024/04/13 04:51:18;;;;;;;6.57;4.50;;;9.90;99.90;;;;;;5426185;26;20801;-50
2024/04/13 04:53:44;;;;;;;7.93;5.37;;;10.00;99.90;;;;;;5406623;26;20256;-54
2024/04/13 04:56:13;;;;;;;8.50;4.87;;;10.00;99.90;;;;;;5431489;26;20732;-55
2024/04/13 04:58:39;;;;;;;7.23;4.97;;;10.00;99.90;;;;;;5438109;26;20231;-52
2024/04/13 05:01:07;;;;;;;11.93;5.10;;;9.90;99.90;;;;;;5447430;26;20276;-55
2024/04/13 05:03:33;;;;;;;10.33;5.33;;;9.90;99.90;;;;;;5451673;26;20232;-55
2024/04/13 05:06:02;;;;;;;6.23;4.50;;;9.90;99.90;;;;;;5457974;26;20261;-53
2024/04/13 05:08:31;;;;;;;8.47;5.40;;;10.00;99.90;;;;;;5442693;26;20240;-57
2024/04/13 05:10:59;;;;;;;11.00;5.07;;;10.00;99.90;;;;;;5384310;26;20767;-54
2024/04/13 05:13:25;;;;;;;8.07;5.17;;;10.00;99.90;;;;;;5433004;26;20347;-57
2024/04/13 05:15:54;;;;;;;7.33;5.10;;;10.10;99.90;;;;;;5421426;26;20238;-57
2024/04/13 05:18:21;;;;;;;9.70;4.83;;;10.10;99.90;;;;;;5428632;26;20277;-56
2024/04/13 05:20:51;;;;;;;6.37;4.93;;;10.10;99.90;;;;;;5427578;26;20243;-53
2024/04/13 05:23:16;;;;;;;10.20;5.53;;;10.20;99.90;;;;;;5417688;26;20562;-57
2024/04/13 05:25:47;;;;;;;8.23;5.23;;;10.30;99.90;;;;;;5407277;26;20281;-53
2024/04/13 05:28:13;;;;;;;8.23;5.40;;;10.40;99.90;;;;;;5417022;26;20305;-57
2024/04/13 05:30:55;;;;;;;7.00;5.43;;;10.50;99.90;;;;;;5444511;26;20282;-54
2024/04/13 05:33:21;;;;;;;8.13;5.20;;;10.60;99.90;;;;;;5399719;26;20254;-50
2024/04/13 05:35:50;;;;;;;9.77;5.37;;;10.70;99.90;;;;;;5438287;26;20243;-53
2024/04/13 05:38:15;;;;;;;8.83;5.33;;;10.90;99.90;;;;;;5398948;26;20233;-57
2024/04/13 05:40:45;;;;;;;7.43;5.20;;;10.90;99.90;;;;;;5428005;26;20260;-58
2024/04/13 05:43:14;;;;;;;10.40;5.13;;;11.00;99.90;;;;;;5404518;26;20354;-52
2024/04/13 05:45:43;;;;;;;8.63;6.07;;;11.10;99.90;;;;;;5434382;26;20235;-57
2024/04/13 05:48:09;;;;;;;7.80;5.07;;;11.20;99.90;;;;;;5415654;26;20904;-59
2024/04/13 05:50:38;;;;;;;7.23;5.30;;;11.30;99.90;;;;;;5433358;26;20243;-58
2024/04/13 05:53:04;;;;;;;7.20;5.10;;;11.40;99.90;;;;;;5419490;26;20546;-60
2024/04/13 05:55:33;;;;;;;7.93;5.60;;;11.40;99.90;;;;;;5465637;26;20226;-60
2024/04/13 05:57:59;;;;;;;6.53;5.07;;;11.50;99.90;;;;;;5405091;26;20275;-60
2024/04/13 06:00:30;;;;;;;8.17;5.30;;;11.50;99.90;;;;;;5427400;26;20235;-60
2024/04/13 06:02:56;;;;;;;6.97;4.80;;;11.60;99.90;;;;;;5417460;26;20278;-60
2024/04/13 06:05:24;;;;;;;6.60;4.70;;;11.70;99.90;;;;;;5420851;26;20234;-58
2024/04/13 06:07:50;;;;;;;7.17;5.10;;;11.80;99.90;;;;;;5448242;26;20227;-58
2024/04/13 06:10:19;;;;;;;7.27;4.77;;;11.80;99.90;;;;;;5434326;26;20841;-60
2024/04/13 06:12:46;;;;;;;12.93;6.37;;;11.90;99.90;;;;;;5412076;26;20246;-59
2024/04/13 06:15:14;;;;;;;6.00;4.07;;;11.90;99.90;;;;;;5445389;26;20344;-60
2024/04/13 06:17:43;;;;;;;5.47;4.53;;;12.00;99.90;;;;;;5452670;26;20223;-59
2024/04/13 06:20:12;;;;;;;7.87;4.63;;;12.10;99.90;;;;;;5421509;26;20257;-59
2024/04/13 06:22:38;;;;;;;7.10;4.87;;;12.20;99.90;;;;;;5460270;26;20223;-59
2024/04/13 06:25:10;;;;;;;10.20;4.30;;;12.30;99.90;;;;;;5431082;26;20258;-58
2024/04/13 06:27:36;;;;;;;6.43;5.13;;;12.40;99.90;;;;;;5400244;26;20243;-57
2024/04/13 06:30:05;;;;;;;7.30;4.77;;;12.40;99.90;;;;;;5453157;26;20232;-59
2024/04/13 06:32:31;;;;;;;6.87;4.60;;;12.50;99.90;;;;;;5418828;26;20231;-58
2024/04/13 06:35:02;;;;;;;8.83;5.10;;;12.60;99.90;;;;;;5428086;26;20232;-59
2024/04/13 06:37:29;;;;;;;7.40;5.03;;;12.70;99.90;;;;;;5439738;26;20234;-57
2024/04/13 06:39:58;;;;;;;4.20;3.53;;;12.70;99.90;;;;;;5432711;26;20365;-60
2024/04/13 06:42:25;;;;;;;8.67;4.43;;;12.80;99.90;;;;;;5437323;26;20285;-59
2024/04/13 06:44:54;;;;;;;4.40;3.80;;;12.90;99.90;;;;;;5421076;26;21154;-60
2024/04/13 06:47:21;;;;;;;5.07;3.63;;;12.90;99.90;;;;;;5431830;26;20243;-59
2024/04/13 06:49:50;;;;;;;7.13;4.27;;;13.00;99.90;;;;;;5435899;26;20283;-57
2024/04/13 06:52:18;;;;;;;4.43;3.70;;;13.10;99.90;;;;;;5426999;26;20239;-59
2024/04/13 06:54:47;;;;;;;5.30;4.20;;;13.20;99.90;;;;;;5437131;26;20316;-59
2024/04/13 06:57:13;;;;;;;7.20;3.87;;;13.20;99.90;;;;;;5443815;26;20273;-58
2024/04/13 06:59:42;;;;;;;4.67;4.07;;;13.30;99.90;;;;;;5390700;26;20281;-58
2024/04/13 07:02:07;;;;;;;6.40;3.63;;;13.30;99.90;;;;;;5420301;26;20240;-58
2024/04/13 07:04:36;;;;;;;6.80;4.17;;;13.40;99.90;;;;;;5438534;26;20281;-59
2024/04/13 07:07:02;;;;;;;5.03;3.73;;;13.50;99.90;;;;;;5409993;26;20308;-59
2024/04/13 07:09:33;;;;;;;4.87;3.77;;;13.50;99.90;;;;;;5462494;26;20969;-59
2024/04/13 07:11:59;;;;;;;3.97;3.67;;;13.60;99.90;;;;;;5431778;26;20231;-58
2024/04/13 07:14:27;;;;;;;8.23;3.40;;;13.60;99.90;;;;;;5406122;26;20234;-59
2024/04/13 07:16:53;;;;;;;5.60;3.43;;;13.70;99.90;;;;;;5434795;26;20237;-58
2024/04/13 07:19:22;;;;;;;4.93;3.17;;;13.70;99.90;;;;;;5452946;26;20251;-59
2024/04/13 07:21:48;;;;;;;4.70;3.90;;;13.80;99.90;;;;;;5439016;26;20235;-58
2024/04/13 07:24:16;;;;;;;4.73;3.83;;;13.70;99.90;;;;;;5454672;26;20275;-59
2024/04/13 07:26:45;;;;;;;5.40;3.77;;;13.80;99.90;;;;;;5434853;26;20291;-57
2024/04/13 07:29:13;;;;;;;5.90;3.90;;;13.80;99.90;;;;;;5409141;26;20335;-59
2024/04/13 07:31:39;;;;;;;5.27;3.97;;;13.90;99.90;;;;;;5450138;26;20334;-59
2024/04/13 07:34:08;;;;;;;4.27;3.30;;;13.90;99.90;;;;;;5420940;26;20460;-58
2024/04/13 07:36:34;;;;;;;6.77;3.50;;;14.00;99.90;;;;;;5436524;26;20354;-58
2024/04/13 07:39:02;;;;;;;5.70;3.40;;;14.00;99.90;;;;;;5442312;26;21044;-58
2024/04/13 07:41:28;;;;;;;5.70;4.10;;;14.10;99.90;;;;;;5431911;26;20285;-58
2024/04/13 07:43:59;;;;;;;6.93;4.00;;;14.20;99.90;;;;;;5391524;26;20237;-58
2024/04/13 07:46:26;;;;;;;4.23;3.20;;;14.30;99.90;;;;;;5458688;26;20223;-58
2024/04/13 07:48:55;;;;;;;5.37;3.20;;;14.50;99.90;;;;;;5426834;26;20240;-58
2024/04/13 07:51:21;;;;;;;11.37;3.53;;;14.50;99.90;;;;;;5434711;26;20259;-57
2024/04/13 07:53:49;;;;;;;5.20;3.20;;;14.50;99.90;;;;;;5420616;26;20335;-58
2024/04/13 07:56:15;;;;;;;5.40;3.23;;;14.50;99.90;;;;;;5441257;26;20238;-58
2024/04/13 07:58:44;;;;;;;4.77;3.83;;;14.60;99.90;;;;;;5371423;26;20246;-58
2024/04/13 08:01:13;;;;;;;4.77;3.27;;;14.70;99.90;;;;;;5456920;26;20231;-56
2024/04/13 08:03:41;;;;;;;5.70;3.23;;;14.80;99.90;;;;;;5409330;26;20247;-58
2024/04/13 08:06:07;;;;;;;10.93;3.37;;;14.90;99.90;;;;;;5435607;26;20234;-58
2024/04/13 08:08:36;;;;;;;5.50;2.70;;;14.90;99.90;;;;;;5421589;26;20226;-58
2024/04/13 08:11:06;;;;;;;4.93;2.80;;;14.90;99.90;;;;;;5445887;26;20231;-58
2024/04/13 08:13:35;;;;;;;6.03;3.00;;;14.90;99.90;;;;;;5450396;26;20721;-56
2024/04/13 08:16:03;;;;;;;5.87;3.07;;;15.00;99.90;;;;;;5406084;26;20239;-58
2024/04/13 08:18:34;;;;;;;3.87;3.40;;;15.10;99.90;;;;;;5454885;26;20231;-58
2024/04/13 08:21:00;;;;;;;6.17;3.10;;;15.20;99.90;;;;;;5421179;26;20293;-58
2024/04/13 08:23:28;;;;;;;6.60;3.23;;;15.30;99.90;;;;;;5428790;26;20231;-58
2024/04/13 08:26:01;;;;;;;4.83;2.87;;;15.40;99.90;;;;;;5466904;26;20270;-58
2024/04/13 08:28:29;;;;;;;5.53;3.33;;;15.40;99.90;;;;;;5432318;26;21148;-57
2024/04/13 08:30:55;;;;;;;8.60;3.40;;;15.30;99.90;;;;;;5413766;26;20297;-58
2024/04/13 08:33:23;;;;;;;5.20;2.87;;;15.30;99.90;;;;;;5450751;26;20240;-58
2024/04/13 08:36:01;;;;;;;4.80;2.90;;;15.40;99.90;;;;;;5424624;26;20282;-58
2024/04/13 08:38:29;;;;;;;2.77;2.50;;;15.50;99.90;;;;;;5453034;26;20313;-58
2024/04/13 08:40:57;;;;;;;5.70;2.83;;;15.60;99.90;;;;;;5445225;26;20243;-57
2024/04/13 08:43:26;;;;;;;2.87;2.50;;;15.60;99.90;;;;;;5461471;26;20230;-58
2024/04/13 08:45:53;;;;;;;4.03;2.80;;;15.70;99.90;;;;;;5465740;26;20345;-58
2024/04/13 08:48:24;;;;;;;5.60;3.17;;;15.80;99.90;;;;;;5415962;26;20259;-57
2024/04/13 08:50:52;;;;;;;7.70;3.17;;;15.90;99.90;;;;;;5440853;26;20679;-57
2024/04/13 08:53:25;;;;;;;3.87;3.00;;;15.90;99.90;;;;;;5430968;26;20287;-58
2024/04/13 08:55:53;;;;;;;4.83;2.70;;;15.90;99.90;;;;;;5429095;26;20279;-59
2024/04/13 08:58:22;;;;;;;4.10;3.00;;;16.00;99.90;;;;;;5449822;26;20231;-59
2024/04/13 09:00:53;;;;;;;3.97;2.80;;;16.20;99.90;;;;;;5452559;26;20270;-59
2024/04/13 09:03:23;;;;;;;5.70;3.27;;;16.30;99.90;;;;;;5384005;26;20318;-59
2024/04/13 09:05:49;;;;;;;6.07;2.90;;;16.40;99.90;;;;;;5440219;26;20724;-59
2024/04/13 09:08:18;;;;;;;3.80;2.80;;;16.40;99.90;;;;;;5436739;26;20239;-59
2024/04/13 09:10:51;;;;;;;6.33;3.27;;;16.50;99.90;;;;;;5440857;26;20247;-59
2024/04/13 09:13:19;;;;;;;6.40;2.90;;;16.50;99.90;;;;;;5453472;26;20297;-59
2024/04/13 09:15:46;;;;;;;9.23;3.27;;;16.60;99.90;;;;;;5459010;26;20223;-59
2024/04/13 09:18:15;;;;;;;4.87;3.17;;;16.60;99.90;;;;;;5399564;26;21048;-58
2024/04/13 09:20:42;;;;;;;5.30;2.70;;;16.60;99.90;;;;;;5457056;26;20239;-59
2024/04/13 09:23:11;;;;;;;3.43;2.63;;;16.70;99.90;;;;;;5435470;26;20226;-59
2024/04/13 09:25:37;;;;;;;6.13;3.43;;;16.80;99.90;;;;;;5440108;26;20235;-59
2024/04/13 09:28:10;;;;;;;5.63;2.97;;;16.90;99.90;;;;;;5462782;26;20340;-59
2024/04/13 09:30:36;;;;;;;5.10;2.70;;;16.90;99.90;;;;;;5456206;26;20957;-58
2024/04/13 09:33:06;;;;;;;4.87;2.77;;;16.90;99.90;;;;;;5423068;26;20251;-57
2024/04/13 09:35:33;;;;;;;4.00;2.93;;;16.90;99.90;;;;;;5446101;26;21222;-59
2024/04/13 09:38:03;;;;;;;4.20;2.70;;;16.90;99.90;;;;;;5458328;26;20302;-58
2024/04/13 09:40:30;;;;;;;4.30;2.83;;;17.00;99.90;;;;;;5427724;26;20254;-59
2024/04/13 09:43:00;;;;;;;3.77;2.70;;;17.10;99.90;;;;;;5465545;26;20238;-58
2024/04/13 09:45:28;;;;;;;2.70;2.40;;;17.20;99.90;;;;;;5439040;26;20227;-58
2024/04/13 09:48:00;;;;;;;6.97;3.10;;;17.20;99.90;;;;;;5457542;26;20281;-59
2024/04/13 09:50:27;;;;;;;6.77;2.83;;;17.30;99.90;;;;;;5417246;26;20605;-59
2024/04/13 09:52:57;;;;;;;4.07;3.07;;;17.40;99.90;;;;;;5459741;26;20354;-58
2024/04/13 09:55:23;;;;;;;4.57;2.97;;;17.50;99.90;;;;;;5425043;26;20343;-59
2024/04/13 09:57:53;;;;;;;4.77;2.70;;;17.60;99.90;;;;;;5442855;26;21004;-59
2024/04/13 10:00:19;;;;;;;7.93;3.07;;;17.70;99.90;;;;;;5441418;26;20227;-59
2024/04/13 10:02:51;;;;;;;5.73;2.73;;;17.90;99.90;;;;;;5462105;26;20240;-59
2024/04/13 10:05:18;;;;;;;4.23;2.67;;;18.00;99.90;;;;;;5400600;26;20282;-59
2024/04/13 10:07:47;;;;;;;4.17;2.40;;;17.90;99.90;;;;;;5461656;26;20228;-58
2024/04/13 10:10:14;;;;;;;6.30;2.57;;;17.90;99.90;;;;;;5433678;26;20239;-59
2024/04/13 10:12:43;;;;;;;7.30;2.70;;;17.80;99.90;;;;;;5427228;26;20269;-59
2024/04/13 10:15:11;;;;;;;6.87;3.10;;;17.70;99.90;;;;;;5450593;26;20226;-58
2024/04/13 10:17:42;;;;;;;7.60;2.73;;;17.70;99.90;;;;;;5457369;26;20280;-59
2024/04/13 10:20:10;;;;;;;5.13;2.90;;;17.70;99.90;;;;;;5417179;26;21063;-58
2024/04/13 10:22:39;;;;;;;6.63;2.43;;;17.60;99.90;;;;;;5459961;26;20289;-59
2024/04/13 10:25:07;;;;;;;3.47;2.30;;;17.70;99.90;;;;;;5440217;26;20277;-59
2024/04/13 10:27:38;;;;;;;3.77;2.67;;;17.80;99.90;;;;;;5410297;26;20288;-59
2024/04/13 10:30:05;;;;;;;4.10;2.27;;;17.80;99.90;;;;;;5460412;26;20234;-57
2024/04/13 10:32:34;;;;;;;4.33;2.03;;;17.90;99.90;;;;;;5454832;26;20362;-59
2024/04/13 10:35:07;;;;;;;4.10;2.23;;;18.00;99.90;;;;;;5458702;26;20228;-58
2024/04/13 10:37:39;;;;;;;6.07;2.70;;;18.00;99.90;;;;;;5416148;26;20288;-58
2024/04/13 10:40:06;;;;;;;4.43;2.37;;;18.00;99.90;;;;;;5449089;26;20322;-59
2024/04/13 10:42:39;;;;;;;7.50;2.30;;;18.20;99.90;;;;;;5428843;26;20372;-59
2024/04/13 10:45:17;;;;;;;5.43;2.10;;;18.40;99.90;;;;;;5421469;26;20247;-58
2024/04/13 10:47:44;;;;;;;3.47;2.00;;;18.50;99.90;;;;;;5459765;26;20755;-58
2024/04/13 10:50:13;;;;;;;5.23;1.70;;;18.50;99.90;;;;;;5463203;26;20246;-59
2024/04/13 10:52:42;;;;;;;5.97;2.47;;;18.50;99.90;;;;;;5420235;26;20243;-57
2024/04/13 10:55:16;;;;;;;4.47;1.97;;;18.60;99.90;;;;;;5451993;26;20278;-58
2024/04/13 10:57:46;;;;;;;5.77;2.20;;;18.70;99.90;;;;;;5442423;26;20234;-58
2024/04/13 11:00:15;;;;;;;5.87;2.10;;;18.70;99.90;;;;;;5433130;26;20235;-58
2024/04/13 11:02:40;;;;;;;5.87;2.50;;;18.70;99.90;;;;;;5461793;26;20231;-58
2024/04/13 11:05:10;;;;;;;3.77;2.10;;;18.70;99.90;;;;;;5459057;26;20231;-58
2024/04/13 11:07:36;;;;;;;4.97;1.83;;;18.70;99.90;;;;;;5398139;26;20567;-59
2024/04/13 11:10:07;;;;;;;3.93;1.90;;;18.70;99.90;;;;;;5451075;26;20235;-58
2024/04/13 11:12:34;;;;;;;4.67;2.30;;;18.70;99.90;;;;;;5438986;26;20290;-59
2024/04/13 11:15:05;;;;;;;4.30;2.30;;;18.70;99.90;;;;;;5445805;26;20231;-59
2024/04/13 11:17:31;;;;;;;4.43;1.97;;;18.70;99.90;;;;;;5458424;26;20326;-59
2024/04/13 11:20:00;;;;;;;5.37;2.17;;;18.70;99.90;;;;;;5448601;26;20301;-58
2024/04/13 11:22:26;;;;;;;3.67;2.00;;;18.80;99.90;;;;;;5393745;26;20246;-59
2024/04/13 11:24:55;;;;;;;3.67;2.30;;;18.80;99.90;;;;;;5456473;26;20759;-60
2024/04/13 11:27:24;;;;;;;3.40;2.30;;;18.80;99.90;;;;;;5435304;26;21850;-59
2024/04/13 11:29:53;;;;;;;4.13;2.10;;;18.80;99.90;;;;;;5469468;26;20293;-59
2024/04/13 11:32:19;;;;;;;3.97;2.40;;;18.80;99.90;;;;;;5422621;26;20235;-59
2024/04/13 11:34:48;;;;;;;8.77;2.57;;;18.90;99.90;;;;;;5449769;26;20234;-59
2024/04/13 11:37:15;;;;;;;4.60;2.50;;;19.00;99.90;;;;;;5399773;26;20275;-59
2024/04/13 11:39:45;;;;;;;6.20;2.85;;;19.00;99.90;;;;;;5460676;26;20239;-56
2024/04/13 11:42:15;;;;;;;4.10;2.40;;;19.10;99.90;;;;;;5463515;26;20234;-57
2024/04/13 11:44:46;;;;;;;5.60;2.77;;;19.00;99.90;;;;;;5442789;26;20306;-59
2024/04/13 11:47:12;;;;;;;3.80;2.25;;;19.10;99.90;;;;;;5448657;26;20270;-59
2024/04/13 11:49:41;;;;;;;4.90;2.75;;;19.10;99.90;;;;;;5456880;26;20568;-60
2024/04/13 11:52:10;;;;;;;3.03;2.20;;;19.30;99.90;;;;;;5455699;26;20266;-58
2024/04/13 11:54:38;;;;;;;3.70;2.67;;;19.30;99.90;;;;;;5413512;26;20733;-60
2024/04/13 11:57:10;;;;;;;5.30;2.17;;;19.30;99.90;;;;;;5456303;26;20224;-60
2024/04/13 11:59:38;;;;;;;2.67;2.07;;;19.40;99.90;;;;;;5452319;26;20234;-59
2024/04/13 12:02:07;;;;;;;3.90;1.93;;;19.50;99.90;;;;;;5431321;26;20376;-60
2024/04/13 12:04:35;;;;;;;5.70;2.20;;;19.40;99.90;;;;;;5452959;26;20234;-56
2024/04/13 12:07:01;;;;;;;2.60;2.03;;;19.50;99.90;;;;;;5451464;26;20228;-58
2024/04/13 12:09:30;;;;;;;6.20;2.08;;;19.60;99.90;;;;;;5421310;26;20273;-60
2024/04/13 12:11:57;;;;;;;2.35;2.13;;;19.60;99.90;;;;;;5455128;26;21130;-57
2024/04/13 12:14:26;;;;;;;3.67;2.23;;;19.50;99.90;;;;;;5447983;26;20278;-58
2024/04/13 12:16:52;;;;;;;5.53;2.10;;;19.40;99.90;;;;;;5436427;26;20317;-59
2024/04/13 12:19:23;;;;;;;4.57;1.95;;;19.40;99.90;;;;;;5453622;26;20227;-59
2024/04/13 12:21:49;;;;;;;2.97;2.00;;;19.40;99.90;;;;;;5467082;26;20347;-60
2024/04/13 12:24:18;;;;;;;3.45;2.17;;;19.40;99.90;;;;;;5412172;26;20813;-57
2024/04/13 12:26:44;;;;;;;3.08;1.90;;;19.50;99.90;;;;;;5466184;26;20231;-59
2024/04/13 12:29:12;;;;;;;3.65;2.30;;;19.50;99.90;;;;;;5446969;26;20287;-58
2024/04/13 12:31:38;;;;;;;4.40;1.70;;;19.60;99.90;;;;;;5451701;26;20235;-60
2024/04/13 12:34:07;;;;;;;4.10;2.00;;;19.70;99.90;;;;;;5445629;26;20223;-56
2024/04/13 12:36:37;;;;;;;2.33;1.70;;;19.80;99.90;;;;;;5467652;26;20231;-58
2024/04/13 12:39:09;;;;;;;2.70;1.55;;;19.90;99.90;;;;;;5467479;26;20227;-58
2024/04/13 12:41:36;;;;;;;3.85;1.90;;;20.00;99.90;;;;;;5425939;26;20247;-57
2024/04/13 12:44:05;;;;;;;3.42;1.95;;;20.10;99.90;;;;;;5451509;26;20452;-58
2024/04/13 12:46:34;;;;;;;3.33;1.65;;;20.20;99.90;;;;;;5426810;26;20354;-62
2024/04/13 12:49:00;;;;;;;3.63;2.13;;;20.30;99.90;;;;;;5431471;26;21202;-57
2024/04/13 12:51:29;;;;;;;2.63;1.50;;;20.40;99.90;;;;;;5469120;26;20282;-57
2024/04/13 12:53:58;;;;;;;3.72;1.77;;;20.30;99.90;;;;;;5465899;26;20265;-55